sensor_id;sensor_type;location;lat;lon;timestamp;pressure;altitude;pressure_sealevel;temperature;humidity
23635;BME280;11994;51.038;16.974;2023-04-02T00:01:28;99253.89;;;8.52;94.38
23635;BME280;11994;51.038;16.974;2023-04-02T00:08:57;99265.21;;;8.41;94.36
23635;BME280;11994;51.038;16.974;2023-04-02T00:11:34;99270.38;;;8.38;94.39
23635;BME280;11994;51.038;16.974;2023-04-02T00:14:03;99273.26;;;8.34;94.25
23635;BME280;11994;51.038;16.974;2023-04-02T00:16:31;99276.38;;;8.29;94.24
23635;BME280;11994;51.038;16.974;2023-04-02T00:19:00;99281.58;;;8.24;94.26
23635;BME280;11994;51.038;16.974;2023-04-02T00:21:31;99286.95;;;8.18;94.19
23635;BME280;11994;51.038;16.974;2023-04-02T00:23:59;99288.27;;;8.09;93.97
23635;BME280;11994;51.038;16.974;2023-04-02T00:26:29;99291.61;;;8.01;93.93
23635;BME280;11994;51.038;16.974;2023-04-02T00:28:56;99294.16;;;7.91;93.87
23635;BME280;11994;51.038;16.974;2023-04-02T00:31:23;99297.61;;;7.86;94.15
23635;BME280;11994;51.038;16.974;2023-04-02T00:33:49;99301.66;;;7.84;94.29
23635;BME280;11994;51.038;16.974;2023-04-02T00:36:17;99308.30;;;7.77;94.16
23635;BME280;11994;51.038;16.974;2023-04-02T00:38:45;99310.48;;;7.73;94.12
23635;BME280;11994;51.038;16.974;2023-04-02T00:41:23;99308.86;;;7.69;94.17
23635;BME280;11994;51.038;16.974;2023-04-02T00:43:51;99309.66;;;7.58;93.99
23635;BME280;11994;51.038;16.974;2023-04-02T00:46:24;99310.90;;;7.51;94.25
23635;BME280;11994;51.038;16.974;2023-04-02T00:49:09;99314.48;;;7.40;94.11
23635;BME280;11994;51.038;16.974;2023-04-02T00:51:43;99321.02;;;7.36;94.14
23635;BME280;11994;51.038;16.974;2023-04-02T00:54:12;99325.89;;;7.29;94.06
23635;BME280;11994;51.038;16.974;2023-04-02T00:56:45;99327.00;;;7.20;94.12
23635;BME280;11994;51.038;16.974;2023-04-02T00:59:18;99328.43;;;7.11;94.14
23635;BME280;11994;51.038;16.974;2023-04-02T01:01:50;99337.36;;;7.08;94.33
23635;BME280;11994;51.038;16.974;2023-04-02T01:04:34;99339.58;;;7.03;94.11
23635;BME280;11994;51.038;16.974;2023-04-02T01:07:07;99341.12;;;6.96;94.04
23635;BME280;11994;51.038;16.974;2023-04-02T01:15:28;99351.52;;;6.82;94.37
23635;BME280;11994;51.038;16.974;2023-04-02T01:24:17;99364.77;;;6.73;94.37
23635;BME280;11994;51.038;16.974;2023-04-02T01:29:18;99372.20;;;6.58;94.42
23635;BME280;11994;51.038;16.974;2023-04-02T01:31:45;99376.04;;;6.49;94.36
23635;BME280;11994;51.038;16.974;2023-04-02T01:34:14;99378.85;;;6.40;94.16
23635;BME280;11994;51.038;16.974;2023-04-02T01:44:49;99393.73;;;6.16;94.39
23635;BME280;11994;51.038;16.974;2023-04-02T01:47:18;99397.58;;;6.15;94.52
23635;BME280;11994;51.038;16.974;2023-04-02T01:49:44;99398.05;;;6.16;94.55
23635;BME280;11994;51.038;16.974;2023-04-02T01:52:18;99405.36;;;6.15;94.56
23635;BME280;11994;51.038;16.974;2023-04-02T01:54:50;99404.55;;;6.13;94.72
23635;BME280;11994;51.038;16.974;2023-04-02T01:57:16;99404.61;;;6.10;94.61
23635;BME280;11994;51.038;16.974;2023-04-02T01:59:42;99405.83;;;6.10;94.81
23635;BME280;11994;51.038;16.974;2023-04-02T02:02:11;99405.90;;;6.05;94.56
23635;BME280;11994;51.038;16.974;2023-04-02T02:04:38;99412.48;;;5.96;94.65
23635;BME280;11994;51.038;16.974;2023-04-02T02:07:04;99417.88;;;5.87;94.57
23635;BME280;11994;51.038;16.974;2023-04-02T02:09:34;99419.59;;;5.76;94.79
23635;BME280;11994;51.038;16.974;2023-04-02T02:12:01;99429.41;;;5.70;94.93
23635;BME280;11994;51.038;16.974;2023-04-02T02:14:29;99434.13;;;5.67;95.02
23635;BME280;11994;51.038;16.974;2023-04-02T02:16:57;99435.76;;;5.64;95.13
23635;BME280;11994;51.038;16.974;2023-04-02T02:24:36;99450.84;;;5.53;95.25
23635;BME280;11994;51.038;16.974;2023-04-02T02:29:56;99461.61;;;5.51;95.62
23635;BME280;11994;51.038;16.974;2023-04-02T02:32:28;99468.77;;;5.49;95.35
23635;BME280;11994;51.038;16.974;2023-04-02T02:35:10;99469.35;;;5.44;95.41
23635;BME280;11994;51.038;16.974;2023-04-02T02:37:40;99476.63;;;5.44;95.37
23635;BME280;11994;51.038;16.974;2023-04-02T02:40:19;99478.34;;;5.46;95.44
23635;BME280;11994;51.038;16.974;2023-04-02T02:42:56;99487.92;;;5.43;95.56
23635;BME280;11994;51.038;16.974;2023-04-02T02:45:27;99486.75;;;5.39;95.59
23635;BME280;11994;51.038;16.974;2023-04-02T02:47:54;99489.57;;;5.37;95.63
23635;BME280;11994;51.038;16.974;2023-04-02T02:50:23;99491.30;;;5.37;95.47
23635;BME280;11994;51.038;16.974;2023-04-02T02:52:52;99496.86;;;5.37;95.53
23635;BME280;11994;51.038;16.974;2023-04-02T02:55:39;99498.98;;;5.33;95.53
23635;BME280;11994;51.038;16.974;2023-04-02T02:58:07;99506.33;;;5.29;95.45
23635;BME280;11994;51.038;16.974;2023-04-02T03:00:35;99510.05;;;5.22;95.46
23635;BME280;11994;51.038;16.974;2023-04-02T03:03:04;99515.11;;;5.20;95.49
23635;BME280;11994;51.038;16.974;2023-04-02T03:05:31;99519.44;;;5.21;95.70
23635;BME280;11994;51.038;16.974;2023-04-02T03:07:57;99522.35;;;5.23;95.81
23635;BME280;11994;51.038;16.974;2023-04-02T03:13:30;99533.81;;;5.21;95.65
23635;BME280;11994;51.038;16.974;2023-04-02T03:16:17;99542.51;;;5.20;95.63
23635;BME280;11994;51.038;16.974;2023-04-02T03:21:43;99548.13;;;5.13;95.50
23635;BME280;11994;51.038;16.974;2023-04-02T03:24:56;99551.02;;;5.03;95.39
23635;BME280;11994;51.038;16.974;2023-04-02T03:27:30;99551.84;;;4.93;95.33
23635;BME280;11994;51.038;16.974;2023-04-02T03:32:36;99566.89;;;4.79;95.34
23635;BME280;11994;51.038;16.974;2023-04-02T03:35:09;99568.53;;;4.72;95.41
23635;BME280;11994;51.038;16.974;2023-04-02T03:37:48;99577.29;;;4.62;95.36
23635;BME280;11994;51.038;16.974;2023-04-02T03:40:27;99587.94;;;4.54;95.38
23635;BME280;11994;51.038;16.974;2023-04-02T03:43:03;99593.17;;;4.48;95.15
23635;BME280;11994;51.038;16.974;2023-04-02T03:45:52;99596.52;;;4.44;95.09
23635;BME280;11994;51.038;16.974;2023-04-02T03:48:30;99610.56;;;4.40;95.10
23635;BME280;11994;51.038;16.974;2023-04-02T03:50:59;99616.29;;;4.38;95.12
23635;BME280;11994;51.038;16.974;2023-04-02T03:53:28;99617.39;;;4.32;95.12
23635;BME280;11994;51.038;16.974;2023-04-02T03:55:56;99621.76;;;4.26;95.11
23635;BME280;11994;51.038;16.974;2023-04-02T03:58:27;99627.31;;;4.24;95.08
23635;BME280;11994;51.038;16.974;2023-04-02T04:01:16;99631.64;;;4.23;95.12
23635;BME280;11994;51.038;16.974;2023-04-02T04:03:52;99639.10;;;4.22;95.33
23635;BME280;11994;51.038;16.974;2023-04-02T04:08:47;99642.91;;;4.21;95.38
23635;BME280;11994;51.038;16.974;2023-04-02T04:11:17;99650.36;;;4.20;95.33
23635;BME280;11994;51.038;16.974;2023-04-02T04:13:56;99655.89;;;4.20;95.33
23635;BME280;11994;51.038;16.974;2023-04-02T04:16:30;99667.33;;;4.18;95.28
23635;BME280;11994;51.038;16.974;2023-04-02T04:19:08;99673.76;;;4.15;95.32
23635;BME280;11994;51.038;16.974;2023-04-02T04:21:38;99673.25;;;4.11;95.22
23635;BME280;11994;51.038;16.974;2023-04-02T04:24:11;99677.94;;;4.10;95.21
23635;BME280;11994;51.038;16.974;2023-04-02T04:29:46;99685.36;;;4.12;95.51
23635;BME280;11994;51.038;16.974;2023-04-02T04:32:35;99691.42;;;4.10;95.36
23635;BME280;11994;51.038;16.974;2023-04-02T04:35:45;99699.39;;;4.09;95.61
23635;BME280;11994;51.038;16.974;2023-04-02T04:38:25;99707.86;;;4.10;95.55
23635;BME280;11994;51.038;16.974;2023-04-02T04:40:56;99711.30;;;4.13;95.71
23635;BME280;11994;51.038;16.974;2023-04-02T04:43:54;99716.66;;;4.14;95.63
23635;BME280;11994;51.038;16.974;2023-04-02T04:46:22;99715.98;;;4.12;95.77
23635;BME280;11994;51.038;16.974;2023-04-02T04:51:36;99723.30;;;4.04;95.48
23635;BME280;11994;51.038;16.974;2023-04-02T04:54:03;99727.45;;;4.02;95.54
23635;BME280;11994;51.038;16.974;2023-04-02T04:56:30;99734.92;;;3.95;95.38
23635;BME280;11994;51.038;16.974;2023-04-02T04:59:10;99737.70;;;3.92;95.48
23635;BME280;11994;51.038;16.974;2023-04-02T05:04:32;99748.58;;;3.97;95.79
23635;BME280;11994;51.038;16.974;2023-04-02T05:07:18;99752.89;;;4.03;96.00
23635;BME280;11994;51.038;16.974;2023-04-02T05:12:33;99758.56;;;4.08;95.90
23635;BME280;11994;51.038;16.974;2023-04-02T05:15:12;99763.91;;;4.11;96.01
23635;BME280;11994;51.038;16.974;2023-04-02T05:17:47;99769.08;;;4.14;96.03
23635;BME280;11994;51.038;16.974;2023-04-02T05:20:28;99773.39;;;4.20;96.15
23635;BME280;11994;51.038;16.974;2023-04-02T05:23:12;99774.21;;;4.24;96.32
23635;BME280;11994;51.038;16.974;2023-04-02T05:25:57;99781.31;;;4.25;96.48
23635;BME280;11994;51.038;16.974;2023-04-02T05:28:50;99782.87;;;4.26;96.58
23635;BME280;11994;51.038;16.974;2023-04-02T05:33:51;99787.17;;;4.35;96.49
23635;BME280;11994;51.038;16.974;2023-04-02T05:36:25;99794.42;;;4.35;96.63
23635;BME280;11994;51.038;16.974;2023-04-02T05:38:53;99797.73;;;4.33;96.57
23635;BME280;11994;51.038;16.974;2023-04-02T05:41:39;99806.21;;;4.29;96.41
23635;BME280;11994;51.038;16.974;2023-04-02T05:44:36;99807.61;;;4.27;96.32
23635;BME280;11994;51.038;16.974;2023-04-02T05:47:15;99817.14;;;4.27;96.51
23635;BME280;11994;51.038;16.974;2023-04-02T05:52:25;99822.52;;;4.22;96.40
23635;BME280;11994;51.038;16.974;2023-04-02T05:57:50;99825.63;;;4.23;96.36
23635;BME280;11994;51.038;16.974;2023-04-02T06:00:23;99828.55;;;4.25;96.47
23635;BME280;11994;51.038;16.974;2023-04-02T06:02:57;99833.58;;;4.25;96.26
23635;BME280;11994;51.038;16.974;2023-04-02T06:05:28;99834.98;;;4.22;96.23
23635;BME280;11994;51.038;16.974;2023-04-02T06:08:05;99837.25;;;4.21;96.36
23635;BME280;11994;51.038;16.974;2023-04-02T06:10:34;99841.55;;;4.22;96.40
23635;BME280;11994;51.038;16.974;2023-04-02T06:13:07;99844.48;;;4.26;96.22
23635;BME280;11994;51.038;16.974;2023-04-02T06:15:34;99847.08;;;4.28;96.30
23635;BME280;11994;51.038;16.974;2023-04-02T06:20:31;99859.17;;;4.29;96.38
23635;BME280;11994;51.038;16.974;2023-04-02T06:23:06;99864.70;;;4.31;96.17
23635;BME280;11994;51.038;16.974;2023-04-02T06:25:42;99866.43;;;4.32;96.07
23635;BME280;11994;51.038;16.974;2023-04-02T06:28:23;99870.41;;;4.30;95.78
23635;BME280;11994;51.038;16.974;2023-04-02T06:30:58;99874.40;;;4.30;95.92
23635;BME280;11994;51.038;16.974;2023-04-02T06:33:25;99880.98;;;4.29;95.92
23635;BME280;11994;51.038;16.974;2023-04-02T06:35:51;99886.02;;;4.28;95.71
23635;BME280;11994;51.038;16.974;2023-04-02T06:38:23;99891.55;;;4.29;95.77
23635;BME280;11994;51.038;16.974;2023-04-02T06:40:52;99895.70;;;4.31;95.54
23635;BME280;11994;51.038;16.974;2023-04-02T06:45:58;99909.55;;;4.27;95.17
23635;BME280;11994;51.038;16.974;2023-04-02T06:48:26;99913.18;;;4.25;95.19
23635;BME280;11994;51.038;16.974;2023-04-02T06:51:08;99916.83;;;4.22;95.05
23635;BME280;11994;51.038;16.974;2023-04-02T06:53:38;99918.38;;;4.24;95.00
23635;BME280;11994;51.038;16.974;2023-04-02T06:56:22;99922.02;;;4.26;94.88
23635;BME280;11994;51.038;16.974;2023-04-02T06:58:51;99930.48;;;4.27;94.70
23635;BME280;11994;51.038;16.974;2023-04-02T07:01:21;99936.72;;;4.26;94.50
23635;BME280;11994;51.038;16.974;2023-04-02T07:03:48;99937.08;;;4.24;94.64
23635;BME280;11994;51.038;16.974;2023-04-02T07:06:16;99942.79;;;4.24;94.26
23635;BME280;11994;51.038;16.974;2023-04-02T07:08:41;99948.31;;;4.24;94.31
23635;BME280;11994;51.038;16.974;2023-04-02T07:11:11;99948.14;;;4.27;94.10
23635;BME280;11994;51.038;16.974;2023-04-02T07:13:37;99953.33;;;4.25;94.00
23635;BME280;11994;51.038;16.974;2023-04-02T07:16:03;99955.59;;;4.24;93.99
23635;BME280;11994;51.038;16.974;2023-04-02T07:18:31;99960.80;;;4.22;93.98
23635;BME280;11994;51.038;16.974;2023-04-02T07:20:57;99962.00;;;4.20;93.97
23635;BME280;11994;51.038;16.974;2023-04-02T07:23:22;99963.03;;;4.21;93.93
23635;BME280;11994;51.038;16.974;2023-04-02T07:25:49;99966.66;;;4.25;94.09
23635;BME280;11994;51.038;16.974;2023-04-02T07:28:15;99966.14;;;4.28;94.10
23635;BME280;11994;51.038;16.974;2023-04-02T07:30:41;99975.13;;;4.32;94.08
23635;BME280;11994;51.038;16.974;2023-04-02T07:33:11;99977.55;;;4.33;94.24
23635;BME280;11994;51.038;16.974;2023-04-02T07:35:37;99982.91;;;4.33;93.79
23635;BME280;11994;51.038;16.974;2023-04-02T07:38:03;99986.20;;;4.32;93.71
23635;BME280;11994;51.038;16.974;2023-04-02T07:40:28;99986.55;;;4.33;93.68
23635;BME280;11994;51.038;16.974;2023-04-02T07:42:53;99990.88;;;4.33;93.66
23635;BME280;11994;51.038;16.974;2023-04-02T07:45:19;99988.98;;;4.31;93.63
23635;BME280;11994;51.038;16.974;2023-04-02T07:47:45;99996.41;;;4.31;93.68
23635;BME280;11994;51.038;16.974;2023-04-02T07:50:10;99997.98;;;4.32;93.76
23635;BME280;11994;51.038;16.974;2023-04-02T07:52:42;100000.23;;;4.34;93.34
23635;BME280;11994;51.038;16.974;2023-04-02T07:55:09;100006.81;;;4.33;93.19
23635;BME280;11994;51.038;16.974;2023-04-02T07:57:46;100011.47;;;4.36;93.48
23635;BME280;11994;51.038;16.974;2023-04-02T08:00:12;100015.96;;;4.38;93.40
23635;BME280;11994;51.038;16.974;2023-04-02T08:02:38;100023.40;;;4.37;93.14
23635;BME280;11994;51.038;16.974;2023-04-02T08:05:04;100031.73;;;4.34;92.84
23635;BME280;11994;51.038;16.974;2023-04-02T08:07:29;100035.00;;;4.32;92.62
23635;BME280;11994;51.038;16.974;2023-04-02T08:09:54;100040.02;;;4.32;92.55
23635;BME280;11994;51.038;16.974;2023-04-02T08:12:20;100048.17;;;4.28;92.30
23635;BME280;11994;51.038;16.974;2023-04-02T08:14:46;100048.36;;;4.24;92.17
23635;BME280;11994;51.038;16.974;2023-04-02T08:17:11;100055.45;;;4.20;92.28
23635;BME280;11994;51.038;16.974;2023-04-02T08:19:36;100058.21;;;4.18;92.20
23635;BME280;11994;51.038;16.974;2023-04-02T08:22:02;100064.27;;;4.19;92.20
23635;BME280;11994;51.038;16.974;2023-04-02T08:24:28;100068.09;;;4.20;92.00
23635;BME280;11994;51.038;16.974;2023-04-02T08:26:53;100072.58;;;4.21;92.14
23635;BME280;11994;51.038;16.974;2023-04-02T08:29:19;100078.30;;;4.26;92.28
23635;BME280;11994;51.038;16.974;2023-04-02T08:31:45;100084.52;;;4.30;92.41
23635;BME280;11994;51.038;16.974;2023-04-02T08:34:10;100086.08;;;4.28;91.97
23635;BME280;11994;51.038;16.974;2023-04-02T08:36:37;100093.35;;;4.28;91.77
23635;BME280;11994;51.038;16.974;2023-04-02T08:39:05;100091.61;;;4.27;91.49
23635;BME280;11994;51.038;16.974;2023-04-02T08:41:37;100090.92;;;4.25;91.48
23635;BME280;11994;51.038;16.974;2023-04-02T08:47:07;100098.37;;;4.26;91.42
23635;BME280;11994;51.038;16.974;2023-04-02T08:49:42;100094.73;;;4.28;91.32
23635;BME280;11994;51.038;16.974;2023-04-02T08:52:38;100096.64;;;4.36;91.37
23635;BME280;11994;51.038;16.974;2023-04-02T08:55:16;100103.55;;;4.45;91.28
23635;BME280;11994;51.038;16.974;2023-04-02T08:57:51;100103.89;;;4.49;91.11
23635;BME280;11994;51.038;16.974;2023-04-02T09:00:29;100103.55;;;4.50;90.81
23635;BME280;11994;51.038;16.974;2023-04-02T09:03:01;100107.70;;;4.47;90.16
23635;BME280;11994;51.038;16.974;2023-04-02T09:05:32;100110.31;;;4.45;90.33
23635;BME280;11994;51.038;16.974;2023-04-02T09:08:01;100113.25;;;4.45;90.44
23635;BME280;11994;51.038;16.974;2023-04-02T09:10:42;100118.95;;;4.48;90.45
23635;BME280;11994;51.038;16.974;2023-04-02T09:13:22;100121.38;;;4.51;90.41
23635;BME280;11994;51.038;16.974;2023-04-02T09:15:49;100122.08;;;4.52;90.16
23635;BME280;11994;51.038;16.974;2023-04-02T09:18:18;100125.38;;;4.49;90.24
23635;BME280;11994;51.038;16.974;2023-04-02T09:20:44;100124.67;;;4.49;90.21
23635;BME280;11994;51.038;16.974;2023-04-02T09:23:22;100130.21;;;4.53;90.29
23635;BME280;11994;51.038;16.974;2023-04-02T09:25:50;100129.67;;;4.57;90.43
23635;BME280;11994;51.038;16.974;2023-04-02T09:28:17;100130.89;;;4.70;90.88
23635;BME280;11994;51.038;16.974;2023-04-02T09:33:15;100137.11;;;4.80;89.75
23635;BME280;11994;51.038;16.974;2023-04-02T09:38:24;100142.13;;;4.79;90.03
23635;BME280;11994;51.038;16.974;2023-04-02T09:43:26;100148.17;;;4.88;89.86
23635;BME280;11994;51.038;16.974;2023-04-02T09:48:33;100153.88;;;4.97;89.45
23635;BME280;11994;51.038;16.974;2023-04-02T09:51:17;100164.27;;;5.00;89.19
23635;BME280;11994;51.038;16.974;2023-04-02T09:53:44;100168.10;;;4.98;88.69
23635;BME280;11994;51.038;16.974;2023-04-02T09:56:19;100171.39;;;4.93;88.39
23635;BME280;11994;51.038;16.974;2023-04-02T09:59:05;100177.29;;;4.88;88.06
23635;BME280;11994;51.038;16.974;2023-04-02T10:01:37;100181.64;;;4.84;87.97
23635;BME280;11994;51.038;16.974;2023-04-02T10:04:05;100187.17;;;4.84;87.85
23635;BME280;11994;51.038;16.974;2023-04-02T10:06:32;100192.02;;;4.85;87.86
23635;BME280;11994;51.038;16.974;2023-04-02T10:09:18;100194.45;;;4.85;87.90
23635;BME280;11994;51.038;16.974;2023-04-02T10:11:44;100202.42;;;4.85;87.79
23635;BME280;11994;51.038;16.974;2023-04-02T10:14:17;100205.70;;;4.86;87.91
23635;BME280;11994;51.038;16.974;2023-04-02T10:17:13;100209.34;;;4.86;87.68
23635;BME280;11994;51.038;16.974;2023-04-02T10:19:46;100212.29;;;4.82;87.21
23635;BME280;11994;51.038;16.974;2023-04-02T10:22:14;100212.98;;;4.81;87.07
23635;BME280;11994;51.038;16.974;2023-04-02T10:24:41;100212.11;;;4.84;87.43
23635;BME280;11994;51.038;16.974;2023-04-02T10:27:15;100216.28;;;4.89;87.80
23635;BME280;11994;51.038;16.974;2023-04-02T10:35:07;100225.45;;;4.95;87.33
23635;BME280;11994;51.038;16.974;2023-04-02T10:51:19;100232.72;;;5.10;86.49
23635;BME280;11994;51.038;16.974;2023-04-02T10:56:21;100240.34;;;5.15;85.81
23635;BME280;11994;51.038;16.974;2023-04-02T10:58:56;100244.52;;;5.12;85.61
23635;BME280;11994;51.038;16.974;2023-04-02T11:01:26;100246.23;;;5.14;86.15
23635;BME280;11994;51.038;16.974;2023-04-02T11:04:00;100249.36;;;5.13;85.64
23635;BME280;11994;51.038;16.974;2023-04-02T11:06:52;100253.35;;;5.12;85.83
23635;BME280;11994;51.038;16.974;2023-04-02T11:09:19;100253.85;;;5.14;86.03
23635;BME280;11994;51.038;16.974;2023-04-02T11:11:50;100260.80;;;5.13;85.54
23635;BME280;11994;51.038;16.974;2023-04-02T11:14:24;100267.21;;;5.09;85.17
23635;BME280;11994;51.038;16.974;2023-04-02T11:16:52;100269.64;;;5.10;85.49
23635;BME280;11994;51.038;16.974;2023-04-02T11:22:16;100276.91;;;5.16;85.16
23635;BME280;11994;51.038;16.974;2023-04-02T11:24:46;100282.98;;;5.18;85.34
23635;BME280;11994;51.038;16.974;2023-04-02T11:27:32;100286.45;;;5.15;84.84
23635;BME280;11994;51.038;16.974;2023-04-02T11:30:24;100289.57;;;5.10;84.97
23635;BME280;11994;51.038;16.974;2023-04-02T11:32:51;100294.23;;;5.10;85.06
23635;BME280;11994;51.038;16.974;2023-04-02T11:37:55;100302.05;;;5.11;85.16
23635;BME280;11994;51.038;16.974;2023-04-02T11:45:59;100313.66;;;5.11;84.52
23635;BME280;11994;51.038;16.974;2023-04-02T11:48:27;100313.31;;;5.08;84.34
23635;BME280;11994;51.038;16.974;2023-04-02T11:50:53;100315.39;;;5.06;83.93
23635;BME280;11994;51.038;16.974;2023-04-02T11:53:23;100310.89;;;5.04;83.87
23635;BME280;11994;51.038;16.974;2023-04-02T12:09:28;100343.48;;;5.27;83.90
23635;BME280;11994;51.038;16.974;2023-04-02T12:11:57;100350.58;;;5.24;83.50
23635;BME280;11994;51.038;16.974;2023-04-02T12:14:46;100352.83;;;5.19;83.35
23635;BME280;11994;51.038;16.974;2023-04-02T12:17:33;100356.64;;;5.22;83.69
23635;BME280;11994;51.038;16.974;2023-04-02T12:20:01;100356.14;;;5.25;83.64
23635;BME280;11994;51.038;16.974;2023-04-02T12:22:32;100355.61;;;5.24;83.55
23635;BME280;11994;51.038;16.974;2023-04-02T12:25:01;100358.04;;;5.23;83.53
23635;BME280;11994;51.038;16.974;2023-04-02T12:27:28;100361.67;;;5.22;83.40
23635;BME280;11994;51.038;16.974;2023-04-02T12:30:09;100364.80;;;5.21;83.27
23635;BME280;11994;51.038;16.974;2023-04-02T12:32:35;100364.80;;;5.21;83.35
23635;BME280;11994;51.038;16.974;2023-04-02T12:35:02;100366.18;;;5.21;83.59
23635;BME280;11994;51.038;16.974;2023-04-02T12:37:29;100366.88;;;5.25;83.63
23635;BME280;11994;51.038;16.974;2023-04-02T12:42:29;100367.23;;;5.34;83.67
23635;BME280;11994;51.038;16.974;2023-04-02T12:44:55;100368.61;;;5.38;83.68
23635;BME280;11994;51.038;16.974;2023-04-02T12:47:21;100372.08;;;5.39;83.16
23635;BME280;11994;51.038;16.974;2023-04-02T12:49:47;100369.84;;;5.36;83.22
23635;BME280;11994;51.038;16.974;2023-04-02T12:52:15;100370.17;;;5.38;83.09
23635;BME280;11994;51.038;16.974;2023-04-02T12:54:50;100370.87;;;5.40;83.26
23635;BME280;11994;51.038;16.974;2023-04-02T12:59:58;100376.94;;;5.49;83.28
23635;BME280;11994;51.038;16.974;2023-04-02T13:02:30;100380.58;;;5.51;82.88
23635;BME280;11994;51.038;16.974;2023-04-02T13:05:31;100385.80;;;5.52;83.25
23635;BME280;11994;51.038;16.974;2023-04-02T13:07:58;100386.98;;;5.52;82.50
23635;BME280;11994;51.038;16.974;2023-04-02T13:10:25;100392.02;;;5.49;82.66
23635;BME280;11994;51.038;16.974;2023-04-02T13:13:15;100394.45;;;5.50;82.80
23635;BME280;11994;51.038;16.974;2023-04-02T13:15:41;100397.41;;;5.52;82.64
23635;BME280;11994;51.038;16.974;2023-04-02T13:18:21;100398.27;;;5.52;82.69
23635;BME280;11994;51.038;16.974;2023-04-02T13:21:00;100399.83;;;5.55;82.86
23635;BME280;11994;51.038;16.974;2023-04-02T13:23:30;100396.88;;;5.61;82.72
23635;BME280;11994;51.038;16.974;2023-04-02T13:26:20;100399.30;;;5.62;82.17
23635;BME280;11994;51.038;16.974;2023-04-02T13:29:01;100403.48;;;5.61;82.53
23635;BME280;11994;51.038;16.974;2023-04-02T13:31:31;100400.52;;;5.64;82.91
23635;BME280;11994;51.038;16.974;2023-04-02T13:33:57;100405.02;;;5.67;82.94
23635;BME280;11994;51.038;16.974;2023-04-02T13:36:23;100410.06;;;5.68;82.61
23635;BME280;11994;51.038;16.974;2023-04-02T13:38:48;100404.69;;;5.66;82.75
23635;BME280;11994;51.038;16.974;2023-04-02T13:41:23;100408.84;;;5.70;82.76
23635;BME280;11994;51.038;16.974;2023-04-02T13:43:51;100408.31;;;5.74;82.70
23635;BME280;11994;51.038;16.974;2023-04-02T13:46:22;100410.93;;;5.76;82.77
23635;BME280;11994;51.038;16.974;2023-04-02T13:48:48;100419.08;;;5.76;82.60
23635;BME280;11994;51.038;16.974;2023-04-02T13:51:18;100422.37;;;5.75;82.77
23635;BME280;11994;51.038;16.974;2023-04-02T13:53:51;100430.01;;;5.72;82.53
23635;BME280;11994;51.038;16.974;2023-04-02T13:56:18;100434.88;;;5.69;82.54
23635;BME280;11994;51.038;16.974;2023-04-02T13:58:44;100437.83;;;5.67;82.54
23635;BME280;11994;51.038;16.974;2023-04-02T14:01:11;100439.02;;;5.68;82.73
23635;BME280;11994;51.038;16.974;2023-04-02T14:03:37;100442.67;;;5.70;82.93
23635;BME280;11994;51.038;16.974;2023-04-02T14:09:04;100443.73;;;5.72;82.87
23635;BME280;11994;51.038;16.974;2023-04-02T14:11:52;100447.71;;;5.74;82.99
23635;BME280;11994;51.038;16.974;2023-04-02T14:17:13;100451.36;;;5.75;82.83
23635;BME280;11994;51.038;16.974;2023-04-02T14:20:09;100449.95;;;5.76;82.93
23635;BME280;11994;51.038;16.974;2023-04-02T14:23:08;100454.86;;;5.83;82.94
23635;BME280;11994;51.038;16.974;2023-04-02T14:28:46;100460.40;;;5.89;83.14
23635;BME280;11994;51.038;16.974;2023-04-02T14:40:25;100467.17;;;5.84;82.28
23635;BME280;11994;51.038;16.974;2023-04-02T14:43:07;100474.29;;;5.82;82.43
23635;BME280;11994;51.038;16.974;2023-04-02T14:50:58;100482.63;;;5.89;82.38
23635;BME280;11994;51.038;16.974;2023-04-02T14:53:30;100487.48;;;5.89;82.16
23635;BME280;11994;51.038;16.974;2023-04-02T14:56:02;100486.09;;;5.88;82.52
23635;BME280;11994;51.038;16.974;2023-04-02T14:58:33;100493.20;;;5.91;82.61
23635;BME280;11994;51.038;16.974;2023-04-02T15:01:09;100494.59;;;5.93;82.73
23635;BME280;11994;51.038;16.974;2023-04-02T15:04:11;100499.45;;;5.91;82.23
23635;BME280;11994;51.038;16.974;2023-04-02T15:06:40;100495.80;;;5.93;82.37
23635;BME280;11994;51.038;16.974;2023-04-02T15:15:33;100499.46;;;5.99;82.21
23635;BME280;11994;51.038;16.974;2023-04-02T15:18:00;100506.23;;;5.98;81.96
23635;BME280;11994;51.038;16.974;2023-04-02T15:20:42;100506.22;;;5.97;81.87
23635;BME280;11994;51.038;16.974;2023-04-02T15:26:57;100511.42;;;5.95;81.85
23635;BME280;11994;51.038;16.974;2023-04-02T15:31:32;100516.64;;;6.04;82.17
23635;BME280;11994;51.038;16.974;2023-04-02T15:34:26;100514.55;;;6.05;81.89
23635;BME280;11994;51.038;16.974;2023-04-02T15:42:21;100527.40;;;6.06;81.10
23635;BME280;11994;51.038;16.974;2023-04-02T16:08:14;100553.27;;;6.10;80.18
23635;BME280;11994;51.038;16.974;2023-04-02T16:10:43;100553.80;;;6.10;80.04
23635;BME280;11994;51.038;16.974;2023-04-02T16:16:10;100562.98;;;6.12;80.31
23635;BME280;11994;51.038;16.974;2023-04-02T16:18:52;100569.77;;;6.16;80.38
23635;BME280;11994;51.038;16.974;2023-04-02T16:21:22;100571.50;;;6.17;80.33
23635;BME280;11994;51.038;16.974;2023-04-02T16:23:48;100573.41;;;6.17;80.10
23635;BME280;11994;51.038;16.974;2023-04-02T16:37:51;100594.94;;;6.14;79.67
23635;BME280;11994;51.038;16.974;2023-04-02T16:43:57;100604.83;;;6.13;79.45
23635;BME280;11994;51.038;16.974;2023-04-02T16:46:42;100603.45;;;6.16;79.46
23635;BME280;11994;51.038;16.974;2023-04-02T16:52:18;100613.35;;;6.15;79.68
23635;BME280;11994;51.038;16.974;2023-04-02T17:10:56;100646.13;;;5.93;80.22
23635;BME280;11994;51.038;16.974;2023-04-02T17:13:36;100655.67;;;5.92;80.51
23635;BME280;11994;51.038;16.974;2023-04-02T17:18:57;100659.30;;;5.88;80.63
23635;BME280;11994;51.038;16.974;2023-04-02T17:21:26;100666.08;;;5.86;80.70
23635;BME280;11994;51.038;16.974;2023-04-02T17:24:05;100664.49;;;5.83;80.70